Ardmore Seamaster — V7UU8 — position and weather

sailwx.info

Track history (hours):
 
Tides and Currents Weather Stations Pressure Air Temp Water Temp Dewpoint Dewpoint Depression Visibility Wind Speed Wind Dir Waves Ship Positions

Ardmore Seamaster

Last reported at 2014-Nov-02 03:32 UTC. Time now 2014-Nov-26 00:20 UTC.
Position N 29°21' W 094°48'.
Warning: this ship's position is 23 days out of date.

Length 179 m; draft 7.5 m.

Type: Tanker. MMSI: 538004102.

Date/timePositionNaut miles runAvg speedWind from/ knotsBaromVisibWave heightAir tempDewpointWater temp
2014-Nov-02 03:32N 29°21' W 094°48'1212.7
2014-Nov-02 02:34N 29°33' W 094°54'1111.4
2014-Nov-02 01:34N 29°42' W 095°01'5 4.7
2014-Nov-02 00:30N 29°45' W 095°06'0 0.0
2014-Nov-01 22:31N 29°45' W 095°06'  
2014-Oct-29 01:33N 19°31' W 095°55'1313.5
2014-Oct-29 00:33N 19°17' W 095°58'10 9.7
2014-Oct-28 23:33N 19°12' W 096°06'1 1.0
2014-Oct-28 22:31N 19°12' W 096°07'0 0.0
2014-Oct-28 21:31N 19°12' W 096°07'0 0.0
2014-Oct-28 20:31N 19°12' W 096°07'0 0.0
2014-Oct-28 19:31N 19°12' W 096°07'0 0.0
2014-Oct-28 18:31N 19°12' W 096°07'0 0.0
2014-Oct-28 17:28N 19°12' W 096°07'0 0.0
2014-Oct-28 16:31N 19°12' W 096°07'0 0.0
2014-Oct-28 15:31N 19°12' W 096°07'0 0.0
2014-Oct-28 14:31N 19°12' W 096°07'0 0.0
2014-Oct-28 13:31N 19°12' W 096°07'0 0.0
2014-Oct-28 12:31N 19°12' W 096°07'0 0.0
2014-Oct-28 11:31N 19°12' W 096°07'0 0.0
2014-Oct-28 10:31N 19°12' W 096°07'0 0.0
2014-Oct-28 09:28N 19°12' W 096°07'0 0.0
2014-Oct-28 08:31N 19°12' W 096°07'0 0.0
2014-Oct-28 07:31N 19°12' W 096°07'0 0.0
2014-Oct-28 06:31N 19°12' W 096°07'0 0.0
2014-Oct-28 05:31N 19°12' W 096°07'0 0.0
2014-Oct-28 04:31N 19°12' W 096°07'0 0.0
2014-Oct-28 03:31N 19°12' W 096°07'0 0.0
2014-Oct-28 02:31N 19°12' W 096°07'0 0.0
2014-Oct-28 01:31N 19°12' W 096°07'0 0.0
2014-Oct-28 00:31N 19°12' W 096°07'0 0.0
2014-Oct-27 23:31N 19°12' W 096°07'0 0.0
2014-Oct-27 22:31N 19°12' W 096°07'0 0.0
2014-Oct-27 21:28N 19°12' W 096°07'0 0.0
2014-Oct-27 20:31N 19°12' W 096°07'0 0.0
2014-Oct-27 19:28N 19°12' W 096°07'0 0.0
2014-Oct-27 18:31N 19°12' W 096°07'0 0.0
2014-Oct-27 17:31N 19°12' W 096°07'0 0.0
2014-Oct-27 16:28N 19°12' W 096°07'0 0.0
2014-Oct-27 15:28N 19°12' W 096°07'0 0.0
2014-Oct-27 14:28N 19°12' W 096°07'0 0.0
2014-Oct-27 13:31N 19°12' W 096°07'0 0.0
2014-Oct-27 12:28N 19°12' W 096°07'0 0.0
2014-Oct-27 11:31N 19°12' W 096°07'0 0.0
2014-Oct-27 10:28N 19°12' W 096°07'0 0.0
2014-Oct-27 09:28N 19°12' W 096°07'0 0.0
2014-Oct-27 08:31N 19°12' W 096°07'0 0.0
2014-Oct-27 07:31N 19°12' W 096°07'0 0.0
2014-Oct-27 06:28N 19°12' W 096°07'0 0.0
2014-Oct-27 05:31N 19°12' W 096°07'0 0.0
2014-Oct-27 04:28N 19°12' W 096°07'0 0.0
2014-Oct-27 03:31N 19°12' W 096°07'0 0.0
2014-Oct-27 02:28N 19°12' W 096°07'0 0.0
2014-Oct-27 01:31N 19°12' W 096°07'0 0.0
2014-Oct-27 00:28N 19°12' W 096°07'0 0.0
2014-Oct-26 23:28N 19°12' W 096°07'0 0.0
2014-Oct-26 22:31N 19°12' W 096°07'0 0.0
2014-Oct-26 21:28N 19°12' W 096°07'3 3.2
2014-Oct-26 20:33N 19°12' W 096°04'  
Track history (hours):
 
Tides and Currents Weather Stations Pressure Air Temp Water Temp Dewpoint Dewpoint Depression Visibility Wind Speed Wind Dir Waves Ship Positions

Ardmore Seamaster

Last reported at 2014-Nov-02 03:32 UTC. Time now 2014-Nov-26 00:20 UTC.
Position N 29°21' W 094°48'.
Warning: this ship's position is 23 days out of date.

Length 179 m; draft 7.5 m.

Type: Tanker. MMSI: 538004102.

Date/timePositionNaut miles runAvg speedWind from/ knotsBaromVisibWave heightAir tempDewpointWater temp
2014-Nov-02 03:32N 29°21' W 094°48'1212.7
2014-Nov-02 02:34N 29°33' W 094°54'1111.4
2014-Nov-02 01:34N 29°42' W 095°01'5 4.7
2014-Nov-02 00:30N 29°45' W 095°06'0 0.0
2014-Nov-01 22:31N 29°45' W 095°06'  
2014-Oct-29 01:33N 19°31' W 095°55'1313.5
2014-Oct-29 00:33N 19°17' W 095°58'10 9.7
2014-Oct-28 23:33N 19°12' W 096°06'1 1.0
2014-Oct-28 22:31N 19°12' W 096°07'0 0.0
2014-Oct-28 21:31N 19°12' W 096°07'0 0.0
2014-Oct-28 20:31N 19°12' W 096°07'0 0.0
2014-Oct-28 19:31N 19°12' W 096°07'0 0.0
2014-Oct-28 18:31N 19°12' W 096°07'0 0.0
2014-Oct-28 17:28N 19°12' W 096°07'0 0.0
2014-Oct-28 16:31N 19°12' W 096°07'0 0.0
2014-Oct-28 15:31N 19°12' W 096°07'0 0.0
2014-Oct-28 14:31N 19°12' W 096°07'0 0.0
2014-Oct-28 13:31N 19°12' W 096°07'0 0.0
2014-Oct-28 12:31N 19°12' W 096°07'0 0.0
2014-Oct-28 11:31N 19°12' W 096°07'0 0.0
2014-Oct-28 10:31N 19°12' W 096°07'0 0.0
2014-Oct-28 09:28N 19°12' W 096°07'0 0.0
2014-Oct-28 08:31N 19°12' W 096°07'0 0.0
2014-Oct-28 07:31N 19°12' W 096°07'0 0.0
2014-Oct-28 06:31N 19°12' W 096°07'0 0.0
2014-Oct-28 05:31N 19°12' W 096°07'0 0.0
2014-Oct-28 04:31N 19°12' W 096°07'0 0.0
2014-Oct-28 03:31N 19°12' W 096°07'0 0.0
2014-Oct-28 02:31N 19°12' W 096°07'0 0.0
2014-Oct-28 01:31N 19°12' W 096°07'0 0.0
2014-Oct-28 00:31N 19°12' W 096°07'0 0.0
2014-Oct-27 23:31N 19°12' W 096°07'0 0.0
2014-Oct-27 22:31N 19°12' W 096°07'0 0.0
2014-Oct-27 21:28N 19°12' W 096°07'0 0.0
2014-Oct-27 20:31N 19°12' W 096°07'0 0.0
2014-Oct-27 19:28N 19°12' W 096°07'0 0.0
2014-Oct-27 18:31N 19°12' W 096°07'0 0.0
2014-Oct-27 17:31N 19°12' W 096°07'0 0.0
2014-Oct-27 16:28N 19°12' W 096°07'0 0.0
2014-Oct-27 15:28N 19°12' W 096°07'0 0.0
2014-Oct-27 14:28N 19°12' W 096°07'0 0.0
2014-Oct-27 13:31N 19°12' W 096°07'0 0.0
2014-Oct-27 12:28N 19°12' W 096°07'0 0.0
2014-Oct-27 11:31N 19°12' W 096°07'0 0.0
2014-Oct-27 10:28N 19°12' W 096°07'0 0.0
2014-Oct-27 09:28N 19°12' W 096°07'0 0.0
2014-Oct-27 08:31N 19°12' W 096°07'0 0.0
2014-Oct-27 07:31N 19°12' W 096°07'0 0.0
2014-Oct-27 06:28N 19°12' W 096°07'0 0.0
2014-Oct-27 05:31N 19°12' W 096°07'0 0.0
2014-Oct-27 04:28N 19°12' W 096°07'0 0.0
2014-Oct-27 03:31N 19°12' W 096°07'0 0.0
2014-Oct-27 02:28N 19°12' W 096°07'0 0.0
2014-Oct-27 01:31N 19°12' W 096°07'0 0.0
2014-Oct-27 00:28N 19°12' W 096°07'0 0.0
2014-Oct-26 23:28N 19°12' W 096°07'0 0.0
2014-Oct-26 22:31N 19°12' W 096°07'0 0.0
2014-Oct-26 21:28N 19°12' W 096°07'3 3.2
2014-Oct-26 20:33N 19°12' W 096°04'  

Dump ship's entire track history